Current Weather Conditions: station LECV

sailwx.info

See reports from other nearby stations

no recent reports received from weather station ID LECV

Tides Pressure Air temp Water temp Dewpoint Dewpoint depression Visibility Wind speed Wind direction Waves Ship positions
date/time (UTC)wind fromknots sea level pressurealtimeterstation pressurevisibilityair tempwater tempwave heightnotes
2017-Jan-20 16:35 030 13 2.7 2.0 Light drizzle snow.
2017-Jan-20 16:00 050 18 5.4 3.0
2017-Jan-20 15:00 050 18 5.4 4.0
2017-Jan-20 14:00 040 19 5.4 4.0
2017-Jan-20 13:00 050 19 5.4 4.0
2017-Jan-20 12:00 060 19 5.4 4.0
2017-Jan-20 11:36 060 20 2.4 3.0 Light snow.
2017-Jan-20 11:00 050 25 gusting 38 5.4 3.0
2017-Jan-20 10:00 060 25 5.4 3.0
2017-Jan-20 09:47 060 24 gusting 34 5.4 3.0
2017-Jan-20 09:00 060 27 gusting 39 2.4 2.0 Light snow.
2017-Jan-20 08:11 060 26 gusting 36 4.3 1.0 Light snow.
2017-Jan-20 08:00 050 25 1.6 1.0 Light snow.
2017-Jan-20 07:43 050 22 gusting 34 1.3 1.0 Light snow.
2017-Jan-20 07:00 050 20 gusting 32 4.3 1.0 Light snow.
2017-Jan-19 18:00 050 19 gusting 28 5.4 2.0
2017-Jan-19 17:00 050 19 5.4 3.0
2017-Jan-19 16:00 050 20 5.4 3.0
2017-Jan-19 15:00 050 22 5.4 4.0
2017-Jan-19 14:00 070 17 5.4 6.0
2017-Jan-19 13:00 060 17 5.4 5.0
2017-Jan-19 12:00 050 17 5.4 5.0
2017-Jan-19 11:00 040 14 5.4 3.0
2017-Jan-19 10:00 050 15 5.4 3.0
2017-Jan-19 09:00 040 11 5.4-0.0
2017-Jan-19 08:00 030 13 5.4-0.0
2017-Jan-19 07:00 040 12 5.4-1.0
2017-Jan-18 18:00 070 7 5.4-1.0
2017-Jan-18 17:00 080 7 5.4-0.0